»·PEaware :: AQUA11 KPDX-KOTH

AQUA11 :: KPDX-KOTH

FLIGHT INFORMATION

Flight Status: Arrived
Operator: Unknown
More flights by this operator :: More flights under this callsign
Pilot: Riyadh A. (21865)
Aircraft: BEECH AIRCRAFT T-6A TEXAN
(TEX2)
More flights by this aircraft type
Origin: KPDX Portland Intl
United States
Destination: KOTH North Bend Mun
United States
More flights between these airports :: More routes between these airports
Route: +PTLD1 UBG V495 CVO V481 EUG V121 OTH
File this flight plan on PilotEdge
Remarks: Rqst VOR RWY 5 via WESEB approach
Altitude:
(Current/Filed)
16,000ft
Speed:
(Current/Filed)
240kts
Departed: 23-Jun-20 11:57 AM
Arrived: 23-Jun-20 12:40 PM
Distance/Time
Traveled:
148nm/0:43
Distance/Time
To Go:
Arrived

Flight Plot

Page will automatically refresh every two minutes.


Map Options




Map Legend


Flown Route
Filed Route
Departure Airport
Arrival Airport
Navaid (VOR, NDB)
Fix

Horizontal Profiles

Position Reports

Time Latitude Longitude Heading Altitude Ground
Speed
23-Jun-20 11:34 45.585588 -122.578280 299 21ft 0kts
23-Jun-20 11:35 45.585588 -122.578280 299 21ft 0kts
23-Jun-20 11:36 45.585588 -122.578280 299 21ft 0kts
23-Jun-20 11:37 45.585588 -122.578280 299 21ft 0kts
23-Jun-20 11:38 45.585588 -122.578280 299 21ft 0kts
23-Jun-20 11:39 45.585588 -122.578280 299 21ft 0kts
23-Jun-20 11:40 45.585588 -122.578280 299 21ft 0kts
23-Jun-20 11:41 45.585588 -122.578280 299 21ft 0kts
23-Jun-20 11:42 45.585588 -122.578280 299 21ft 0kts
23-Jun-20 11:43 45.585588 -122.578280 299 21ft 0kts
23-Jun-20 11:44 45.585588 -122.578280 299 21ft 0kts
23-Jun-20 11:45 45.585588 -122.578280 299 21ft 0kts
23-Jun-20 11:46 45.585588 -122.578280 299 21ft 0kts
23-Jun-20 11:47 45.585315 -122.577410 84 21ft 0kts
23-Jun-20 11:48 45.585844 -122.575846 114 21ft 10kts
23-Jun-20 11:49 45.583520 -122.569914 120 21ft 14kts
23-Jun-20 11:50 45.582749 -122.567446 72 21ft 0kts
23-Jun-20 11:51 45.582749 -122.567446 72 21ft 0kts
23-Jun-20 11:52 45.582749 -122.567446 72 21ft 0kts
23-Jun-20 11:53 45.582749 -122.567446 72 21ft 0kts
23-Jun-20 11:54 45.582749 -122.567445 72 21ft 0kts
23-Jun-20 11:55 45.584064 -122.568037 285 21ft 8kts
23-Jun-20 11:56 45.598145 -122.613296 272 1409ft 181kts
23-Jun-20 11:57 45.581705 -122.690978 249 3008ft 228kts
23-Jun-20 11:58 45.561519 -122.776906 231 5236ft 217kts
23-Jun-20 11:59 45.507903 -122.803762 189 8279ft 211kts
23-Jun-20 12:00 45.458744 -122.844709 213 11416ft 204kts
23-Jun-20 12:01 45.412668 -122.889295 217 14758ft 197kts
23-Jun-20 12:02 45.369084 -122.946834 224 16014ft 242kts
23-Jun-20 12:03 45.319780 -123.026439 229 15897ft 281kts
23-Jun-20 12:04 45.247372 -123.031982 165 15996ft 284kts
23-Jun-20 12:05 45.168161 -123.038847 189 15963ft 288kts
23-Jun-20 12:06 45.089359 -123.063145 194 16008ft 287kts
23-Jun-20 12:07 45.012066 -123.092901 195 16001ft 286kts
23-Jun-20 12:08 44.935006 -123.123308 197 16019ft 286kts
23-Jun-20 12:09 44.858089 -123.154058 195 15957ft 287kts
23-Jun-20 12:10 44.780642 -123.180990 193 16038ft 286kts
23-Jun-20 12:11 44.703304 -123.209480 194 15996ft 287kts
23-Jun-20 12:12 44.625922 -123.238855 196 15973ft 289kts
23-Jun-20 12:13 44.549095 -123.271306 197 15922ft 289kts
23-Jun-20 12:14 44.469066 -123.288465 171 15970ft 287kts
23-Jun-20 12:15 44.387899 -123.270802 171 15982ft 288kts
23-Jun-20 12:16 44.307221 -123.253934 173 15918ft 292kts
23-Jun-20 12:17 44.228249 -123.229467 165 16042ft 287kts
23-Jun-20 12:18 44.147452 -123.221276 177 15969ft 289kts
23-Jun-20 12:19 44.078078 -123.270189 224 16063ft 287kts
23-Jun-20 12:20 44.028845 -123.359404 232 15891ft 288kts
23-Jun-20 12:21 43.977331 -123.447507 228 16021ft 285kts
23-Jun-20 12:22 43.924050 -123.533985 233 14344ft 269kts
23-Jun-20 12:23 43.876693 -123.616794 230 11430ft 268kts
23-Jun-20 12:24 43.817906 -123.671139 210 9939ft 250kts
23-Jun-20 12:25 43.754037 -123.726416 209 9959ft 268kts
23-Jun-20 12:26 43.692602 -123.793359 220 10062ft 268kts
23-Jun-20 12:27 43.638150 -123.862718 227 8559ft 250kts
23-Jun-20 12:28 43.585225 -123.933547 224 6350ft 252kts
23-Jun-20 12:29 43.533868 -124.002864 225 5746ft 229kts
23-Jun-20 12:30 43.485198 -124.071920 227 5954ft 239kts
23-Jun-20 12:31 43.437779 -124.136935 225 5745ft 206kts
23-Jun-20 12:32 43.414194 -124.207098 267 5577ft 187kts
23-Jun-20 12:33 43.409963 -124.278600 264 5013ft 193kts
23-Jun-20 12:34 43.401542 -124.349095 220 3536ft 184kts
23-Jun-20 12:35 43.379025 -124.386595 327 2306ft 168kts
23-Jun-20 12:36 43.399845 -124.356397 81 2100ft 110kts
23-Jun-20 12:37 43.404250 -124.310176 76 1941ft 129kts
23-Jun-20 12:38 43.414084 -124.262026 56 108ft 115kts
23-Jun-20 12:39 43.421412 -124.244234 61 8ft 25kts
23-Jun-20 12:40 43.421577 -124.240921 232 8ft 15kts
23-Jun-20 12:42 43.419488 -124.245912 241 14ft 16kts
23-Jun-20 12:43 43.417886 -124.247119 209 22ft 0kts

Navigation Log

Ident Type
Flight plan parsing failed, navigation log unavailable